createdAt,value
2018-03-17T00:00:55.514Z,0.2
2018-03-17T00:01:56.168Z,0.3
2018-03-17T00:02:56.812Z,0.2
2018-03-17T00:03:57.456Z,0.1
2018-03-17T00:04:58.105Z,0.1
2018-03-17T00:05:58.749Z,0.2
2018-03-17T00:06:59.394Z,0.2
2018-03-17T00:08:00.092Z,0.2
2018-03-17T00:09:00.737Z,0.1
2018-03-17T00:10:01.387Z,0.1
2018-03-17T00:11:02.033Z,0.1
2018-03-17T00:12:02.681Z,0.0
2018-03-17T00:13:03.381Z,0.2
2018-03-17T00:14:04.028Z,0.2
2018-03-17T00:15:04.673Z,0.1
2018-03-17T00:16:05.319Z,0.3
2018-03-17T00:17:05.968Z,0.2
2018-03-17T00:18:06.615Z,0.2
2018-03-17T00:19:07.262Z,0.2
2018-03-17T00:20:07.910Z,0.1
2018-03-17T00:21:08.557Z,0.0
2018-03-17T00:22:09.204Z,0.2
2018-03-17T00:23:09.852Z,0.1
2018-03-17T00:24:10.501Z,0.1
2018-03-17T00:25:11.144Z,0.0
2018-03-17T00:26:11.793Z,0.0
2018-03-17T00:27:12.441Z,0.1
2018-03-17T00:28:13.087Z,0.1
2018-03-17T00:29:13.769Z,0.1
2018-03-17T00:30:14.416Z,0.1
2018-03-17T00:31:15.074Z,0.0
2018-03-17T00:32:15.709Z,0.1
2018-03-17T00:33:16.368Z,0.1
2018-03-17T00:34:17.004Z,0.2
2018-03-17T00:35:17.651Z,0.2
2018-03-17T00:36:18.297Z,0.2
2018-03-17T00:37:18.944Z,0.1
2018-03-17T00:38:19.591Z,0.2
2018-03-17T00:39:20.238Z,0.3
2018-03-17T00:40:20.885Z,0.3
2018-03-17T00:41:21.532Z,0.2
2018-03-17T00:42:22.178Z,0.2
2018-03-17T00:43:22.826Z,0.2
2018-03-17T00:44:23.473Z,0.1
2018-03-17T00:45:24.119Z,0.1
2018-03-17T00:46:24.767Z,0.1
2018-03-17T00:47:25.416Z,0.1
2018-03-17T00:48:26.061Z,0.0
2018-03-17T00:49:26.708Z,0.1
2018-03-17T00:50:27.354Z,0.1
2018-03-17T00:51:28.000Z,0.1
2018-03-17T00:52:28.648Z,0.1
2018-03-17T00:53:29.295Z,0.1
2018-03-17T00:54:29.946Z,0.0
2018-03-17T00:55:30.588Z,0.0
2018-03-17T00:56:31.235Z,0.0
2018-03-17T00:57:31.938Z,0.0
2018-03-17T00:58:32.533Z,-0.1
2018-03-17T00:59:33.214Z,0.0
2018-03-17T01:00:33.863Z,-0.1
2018-03-17T01:01:34.512Z,-0.1
2018-03-17T01:02:35.162Z,-0.1
2018-03-17T01:03:35.808Z,-0.1
2018-03-17T01:04:36.455Z,-0.1
2018-03-17T01:05:37.109Z,-0.1
2018-03-17T01:06:37.789Z,-0.1
2018-03-17T01:07:38.440Z,-0.1
2018-03-17T01:08:39.085Z,-0.1
2018-03-17T01:09:39.733Z,-0.0
2018-03-17T01:10:40.380Z,0.0
2018-03-17T01:11:41.029Z,0.0
2018-03-17T01:12:41.677Z,-0.0
2018-03-17T01:13:42.361Z,-0.1
2018-03-17T01:14:43.011Z,-0.1
2018-03-17T01:15:43.658Z,-0.1
2018-03-17T01:16:44.306Z,-0.0
2018-03-17T01:17:44.990Z,-0.0
2018-03-17T01:18:45.691Z,-0.0
2018-03-17T01:19:46.337Z,-0.1
2018-03-17T01:20:46.985Z,-0.1
2018-03-17T01:21:47.633Z,-0.1
2018-03-17T01:22:48.279Z,-0.1
2018-03-17T01:23:48.928Z,-0.1
2018-03-17T01:24:49.576Z,-0.1
2018-03-17T01:25:50.223Z,-0.2
2018-03-17T01:26:50.869Z,-0.2
2018-03-17T01:27:51.520Z,-0.1
2018-03-17T01:28:52.166Z,-0.1
2018-03-17T01:29:52.814Z,-0.2
2018-03-17T01:30:53.461Z,-0.2
2018-03-17T01:31:54.110Z,-0.3
2018-03-17T01:32:54.760Z,-0.3
2018-03-17T01:33:55.406Z,-0.3
2018-03-17T01:34:56.053Z,-0.3
2018-03-17T01:35:56.703Z,-0.2
2018-03-17T01:36:57.349Z,-0.3
2018-03-17T01:37:57.998Z,-0.3
2018-03-17T01:38:58.730Z,-0.3
2018-03-17T01:39:59.379Z,-0.3
2018-03-17T01:41:00.027Z,-0.3
2018-03-17T01:42:00.676Z,-0.3
2018-03-17T01:43:01.363Z,-0.3
2018-03-17T01:44:02.047Z,-0.3
2018-03-17T01:45:02.730Z,-0.3
2018-03-17T01:46:03.377Z,-0.4
2018-03-17T01:47:04.027Z,-0.3
2018-03-17T01:48:04.712Z,-0.4
2018-03-17T01:49:05.360Z,-0.3
2018-03-17T01:50:06.008Z,-0.4
2018-03-17T01:51:06.657Z,-0.4
2018-03-17T01:52:07.304Z,-0.4
2018-03-17T01:53:07.951Z,-0.3
2018-03-17T01:54:08.598Z,-0.3
2018-03-17T01:55:09.248Z,-0.3
2018-03-17T01:56:09.896Z,-0.4
2018-03-17T01:57:10.543Z,-0.4
2018-03-17T01:58:11.192Z,-0.5
2018-03-17T01:59:11.889Z,-0.5
2018-03-17T02:00:12.538Z,-0.4
2018-03-17T02:01:13.184Z,-0.5
2018-03-17T02:02:13.833Z,-0.5
2018-03-17T02:03:14.482Z,-0.5
2018-03-17T02:04:15.129Z,-0.5
2018-03-17T02:05:15.777Z,-0.5
2018-03-17T02:06:16.471Z,-0.4
2018-03-17T02:07:17.101Z,-0.6
2018-03-17T02:08:17.749Z,-0.4
2018-03-17T02:09:18.396Z,-0.5
2018-03-17T02:10:19.048Z,-0.5
2018-03-17T02:11:19.693Z,-0.5
2018-03-17T02:12:20.340Z,-0.6
2018-03-17T02:13:20.989Z,-0.6
2018-03-17T02:14:21.637Z,-0.6
2018-03-17T02:15:22.284Z,-0.6
2018-03-17T02:16:22.932Z,-0.6
2018-03-17T02:17:23.580Z,-0.6
2018-03-17T02:18:24.228Z,-0.6
2018-03-17T02:19:24.874Z,-0.5
2018-03-17T02:20:25.524Z,-0.6
2018-03-17T02:21:26.170Z,-0.6
2018-03-17T02:22:26.819Z,-0.7
2018-03-17T02:23:27.466Z,-0.6
2018-03-17T02:24:28.115Z,-0.8
2018-03-17T02:25:28.769Z,-0.7
2018-03-17T02:26:29.446Z,-0.8
2018-03-17T02:27:30.099Z,-0.7
2018-03-17T02:28:30.743Z,-0.7
2018-03-17T02:29:31.390Z,-0.7
2018-03-17T02:30:32.052Z,-0.8
2018-03-17T02:31:32.685Z,-0.7
2018-03-17T02:32:33.340Z,-0.7
2018-03-17T02:33:33.981Z,-0.7
2018-03-17T02:34:34.629Z,-0.7
2018-03-17T02:35:35.275Z,-0.8
2018-03-17T02:36:35.924Z,-0.7
2018-03-17T02:37:36.574Z,-0.7
2018-03-17T02:38:37.218Z,-0.7
2018-03-17T02:39:37.869Z,-0.7
2018-03-17T02:40:38.520Z,-0.7
2018-03-17T02:41:39.199Z,-0.7
2018-03-17T02:42:39.847Z,-0.7
2018-03-17T02:43:40.495Z,-0.7
2018-03-17T02:44:41.143Z,-0.7
2018-03-17T02:45:41.790Z,-0.6
2018-03-17T02:46:42.437Z,-0.6
2018-03-17T02:47:43.083Z,-0.6
2018-03-17T02:48:43.734Z,-0.7
2018-03-17T02:49:44.416Z,-0.7
2018-03-17T02:50:45.070Z,-0.7
2018-03-17T02:51:45.711Z,-0.7
2018-03-17T02:52:46.361Z,-0.6
2018-03-17T02:53:47.006Z,-0.5
2018-03-17T02:54:47.658Z,-0.5
2018-03-17T02:55:48.300Z,-0.6
2018-03-17T02:56:48.949Z,-0.5
2018-03-17T02:57:49.596Z,-0.6
2018-03-17T02:58:50.244Z,-0.7
2018-03-17T02:59:50.891Z,-0.6
2018-03-17T03:00:51.540Z,-0.7
2018-03-17T03:01:52.188Z,-0.6
2018-03-17T03:02:52.870Z,-0.7
2018-03-17T03:03:53.519Z,-0.6
2018-03-17T03:04:54.169Z,-0.6
2018-03-17T03:05:54.814Z,-0.7
2018-03-17T03:06:55.461Z,-0.7
2018-03-17T03:07:56.120Z,-0.7
2018-03-17T03:08:56.793Z,-0.7
2018-03-17T03:09:57.439Z,-0.7
2018-03-17T03:10:58.084Z,-0.7
2018-03-17T03:11:58.734Z,-0.8
2018-03-17T03:12:59.381Z,-0.8
2018-03-17T03:14:00.029Z,-0.7
2018-03-17T03:15:00.676Z,-0.8
2018-03-17T03:16:01.325Z,-0.9
2018-03-17T03:17:01.972Z,-0.9
2018-03-17T03:18:02.619Z,-0.9
2018-03-17T03:19:03.267Z,-0.9
2018-03-17T03:20:03.915Z,-0.9
2018-03-17T03:21:04.651Z,-1.0
2018-03-17T03:22:05.233Z,-1.0
2018-03-17T03:23:05.877Z,-0.9
2018-03-17T03:24:06.524Z,-1.0
2018-03-17T03:25:07.172Z,-1.0
2018-03-17T03:26:07.820Z,-1.0
2018-03-17T03:27:08.469Z,-1.0
2018-03-17T03:28:09.153Z,-1.1
2018-03-17T03:29:09.803Z,-1.0
2018-03-17T03:30:10.450Z,-1.1
2018-03-17T03:31:11.099Z,-1.1
2018-03-17T03:32:11.754Z,-1.2
2018-03-17T03:33:12.430Z,-1.1
2018-03-17T03:34:13.078Z,-1.1
2018-03-17T03:35:13.750Z,-1.3
2018-03-17T03:36:14.372Z,-1.2
2018-03-17T03:37:15.020Z,-1.3
2018-03-17T03:38:15.666Z,-1.3
2018-03-17T03:39:16.316Z,-1.3
2018-03-17T03:40:16.962Z,-1.2
2018-03-17T03:41:17.615Z,-1.2
2018-03-17T03:42:18.296Z,-1.2
2018-03-17T03:43:18.944Z,-1.2
2018-03-17T03:44:19.632Z,-1.3
2018-03-17T03:45:20.274Z,-1.2
2018-03-17T03:46:20.922Z,-1.3
2018-03-17T03:47:21.568Z,-1.3
2018-03-17T03:48:22.222Z,-1.2
2018-03-17T03:49:22.900Z,-1.3
2018-03-17T03:50:23.547Z,-1.2
2018-03-17T03:51:24.200Z,-1.2
2018-03-17T03:52:24.881Z,-1.3
2018-03-17T03:53:25.564Z,-1.2
2018-03-17T03:54:26.211Z,-1.3
2018-03-17T03:55:26.859Z,-1.3
2018-03-17T03:56:27.505Z,-1.3
2018-03-17T03:57:28.153Z,-1.2
2018-03-17T03:58:28.799Z,-1.3
2018-03-17T03:59:29.446Z,-1.3
2018-03-17T04:00:30.093Z,-1.3
2018-03-17T04:01:30.741Z,-1.5
2018-03-17T04:02:31.387Z,-1.4
2018-03-17T04:03:32.035Z,-1.4
2018-03-17T04:04:32.684Z,-1.5
2018-03-17T04:05:33.333Z,-1.5
2018-03-17T04:06:33.984Z,-1.5
2018-03-17T04:07:34.638Z,-1.5
2018-03-17T04:08:35.278Z,-1.7
2018-03-17T04:09:35.926Z,-1.7
2018-03-17T04:10:36.575Z,-1.7
2018-03-17T04:11:37.225Z,-1.7
2018-03-17T04:12:37.870Z,-1.7
2018-03-17T04:13:38.520Z,-1.6
2018-03-17T04:14:39.205Z,-1.7
2018-03-17T04:15:39.852Z,-1.7
2018-03-17T04:16:40.503Z,-1.7
2018-03-17T04:17:41.153Z,-1.6
2018-03-17T04:18:41.795Z,-1.6
2018-03-17T04:19:42.447Z,-1.6
2018-03-17T04:20:43.091Z,-1.7
2018-03-17T04:21:43.739Z,-1.6
2018-03-17T04:22:44.387Z,-1.5
2018-03-17T04:23:45.035Z,-1.5
2018-03-17T04:24:45.684Z,-1.6
2018-03-17T04:25:46.331Z,-1.5
2018-03-17T04:26:46.979Z,-1.5
2018-03-17T04:27:47.626Z,-1.5
2018-03-17T04:28:48.275Z,-1.5
2018-03-17T04:29:48.923Z,-1.5
2018-03-17T04:30:49.571Z,-1.4
2018-03-17T04:31:50.224Z,-1.5
2018-03-17T04:32:50.867Z,-1.5
2018-03-17T04:33:51.517Z,-1.6
2018-03-17T04:34:52.162Z,-1.6
2018-03-17T04:35:52.810Z,-1.7
2018-03-17T04:36:53.456Z,-1.7
2018-03-17T04:37:54.104Z,-1.7
2018-03-17T04:38:54.751Z,-1.8
2018-03-17T04:39:55.398Z,-1.7
2018-03-17T04:40:56.044Z,-1.8
2018-03-17T04:41:56.692Z,-1.8
2018-03-17T04:42:57.338Z,-1.9
2018-03-17T04:43:57.983Z,-1.8
2018-03-17T04:44:58.630Z,-1.9
2018-03-17T04:45:59.280Z,-1.8
2018-03-17T04:46:59.927Z,-1.9
2018-03-17T04:48:00.600Z,-1.9
2018-03-17T04:49:01.258Z,-1.9
2018-03-17T04:50:01.906Z,-1.9
2018-03-17T04:51:02.552Z,-1.9
2018-03-17T04:52:03.199Z,-1.9
2018-03-17T04:53:03.847Z,-2.0
2018-03-17T04:54:04.496Z,-2.0
2018-03-17T04:55:05.145Z,-2.0
2018-03-17T04:56:06.041Z,-2.0
2018-03-17T04:57:06.689Z,-2.0
2018-03-17T04:58:07.351Z,-2.0
2018-03-17T04:59:07.986Z,-2.0
2018-03-17T05:00:08.632Z,-2.0
2018-03-17T05:01:09.281Z,-1.9
2018-03-17T05:02:09.965Z,-1.8
2018-03-17T05:03:10.614Z,-1.9
2018-03-17T05:04:11.262Z,-1.8
2018-03-17T05:05:11.910Z,-1.8
2018-03-17T05:06:12.559Z,-1.8
2018-03-17T05:07:13.206Z,-1.8
2018-03-17T05:08:13.854Z,-1.9
2018-03-17T05:09:14.501Z,-1.9
2018-03-17T05:10:15.148Z,-2.0
2018-03-17T05:11:15.794Z,-1.9
2018-03-17T05:12:16.455Z,-2.1
2018-03-17T05:13:17.089Z,-2.1
2018-03-17T05:14:17.736Z,-2.2
2018-03-17T05:15:18.382Z,-2.2
2018-03-17T05:16:19.033Z,-2.2
2018-03-17T05:17:19.680Z,-2.1
2018-03-17T05:18:20.328Z,-2.1
2018-03-17T05:19:20.976Z,-2.1
2018-03-17T05:20:21.622Z,-2.2
2018-03-17T05:21:22.271Z,-2.2
2018-03-17T05:22:22.917Z,-2.2
2018-03-17T05:23:23.568Z,-2.2
2018-03-17T05:24:24.213Z,-2.2
2018-03-17T05:25:24.860Z,-2.2
2018-03-17T05:26:25.560Z,-2.2
2018-03-17T05:27:26.245Z,-2.2
2018-03-17T05:28:26.892Z,-2.2
2018-03-17T05:29:27.578Z,-2.2
2018-03-17T05:30:28.227Z,-2.1
2018-03-17T05:31:28.874Z,-2.2
2018-03-17T05:32:29.522Z,-2.2
2018-03-17T05:33:30.169Z,-2.2
2018-03-17T05:34:30.817Z,-2.2
2018-03-17T05:35:31.510Z,-2.2
2018-03-17T05:36:32.113Z,-2.2
2018-03-17T05:37:32.798Z,-2.2
2018-03-17T05:38:33.445Z,-2.2
2018-03-17T05:39:34.098Z,-2.2
2018-03-17T05:40:34.741Z,-2.2
2018-03-17T05:41:35.391Z,-2.2
2018-03-17T05:42:36.040Z,-2.2
2018-03-17T05:43:36.688Z,-2.2
2018-03-17T05:44:37.337Z,-2.2
2018-03-17T05:45:37.986Z,-2.3
2018-03-17T05:46:38.634Z,-2.3
2018-03-17T05:47:39.283Z,-2.3
2018-03-17T05:48:39.930Z,-2.3
2018-03-17T05:49:40.581Z,-2.2
2018-03-17T05:50:41.229Z,-2.2
2018-03-17T05:51:41.876Z,-2.3
2018-03-17T05:52:42.526Z,-2.2
2018-03-17T05:53:43.174Z,-2.3
2018-03-17T05:54:43.824Z,-2.3
2018-03-17T05:55:44.473Z,-2.3
2018-03-17T05:56:45.120Z,-2.3
2018-03-17T05:57:45.769Z,-2.3
2018-03-17T05:58:46.420Z,-2.3
2018-03-17T05:59:47.069Z,-2.3
2018-03-17T06:00:47.717Z,-2.3
2018-03-17T06:01:48.365Z,-2.3
2018-03-17T06:02:49.017Z,-2.3
2018-03-17T06:03:49.698Z,-2.3
2018-03-17T06:04:50.350Z,-2.3
2018-03-17T06:05:51.000Z,-2.4
2018-03-17T06:06:51.685Z,-2.4
2018-03-17T06:07:52.333Z,-2.3
2018-03-17T06:08:53.021Z,-2.4
2018-03-17T06:09:53.671Z,-2.5
2018-03-17T06:10:54.317Z,-2.4
2018-03-17T06:11:54.967Z,-2.4
2018-03-17T06:12:55.617Z,-2.4
2018-03-17T06:13:56.265Z,-2.4
2018-03-17T06:14:56.916Z,-2.4
2018-03-17T06:15:57.565Z,-2.4
2018-03-17T06:16:58.214Z,-2.4
2018-03-17T06:17:58.864Z,-2.4
2018-03-17T06:18:59.514Z,-2.5
2018-03-17T06:20:00.165Z,-2.5
2018-03-17T06:21:00.816Z,-2.5
2018-03-17T06:22:01.503Z,-2.7
2018-03-17T06:23:02.153Z,-2.6
2018-03-17T06:24:02.804Z,-2.6
2018-03-17T06:25:03.456Z,-2.5
2018-03-17T06:26:04.106Z,-2.6
2018-03-17T06:27:04.758Z,-2.5
2018-03-17T06:28:05.446Z,-2.4
2018-03-17T06:29:06.093Z,-2.4
2018-03-17T06:30:06.745Z,-2.5
2018-03-17T06:31:07.395Z,-2.5
2018-03-17T06:32:08.084Z,-2.6
2018-03-17T06:33:08.734Z,-2.6
2018-03-17T06:34:09.384Z,-2.7
2018-03-17T06:35:10.033Z,-2.6
2018-03-17T06:36:10.682Z,-2.7
2018-03-17T06:37:11.330Z,-2.6
2018-03-17T06:38:11.981Z,-2.6
2018-03-17T06:39:12.667Z,-2.5
2018-03-17T06:40:13.314Z,-2.6
2018-03-17T06:41:13.965Z,-2.5
2018-03-17T06:42:14.614Z,-2.5
2018-03-17T06:43:15.305Z,-2.5
2018-03-17T06:44:15.951Z,-2.5
2018-03-17T06:45:16.599Z,-2.5
2018-03-17T06:46:17.254Z,-2.5
2018-03-17T06:47:17.898Z,-2.6
2018-03-17T06:48:18.548Z,-2.5
2018-03-17T06:49:19.236Z,-2.6
2018-03-17T06:50:19.886Z,-2.5
2018-03-17T06:51:20.536Z,-2.5
2018-03-17T06:52:21.186Z,-2.5
2018-03-17T06:53:21.836Z,-2.5
2018-03-17T06:54:22.486Z,-2.5
2018-03-17T06:55:23.137Z,-2.4
2018-03-17T06:56:23.790Z,-2.4
2018-03-17T06:57:24.437Z,-2.4
2018-03-17T06:58:25.125Z,-2.3
2018-03-17T06:59:25.774Z,-2.3
2018-03-17T07:00:26.430Z,-2.2
2018-03-17T07:01:27.077Z,-2.3
2018-03-17T07:02:27.726Z,-2.4
2018-03-17T07:03:28.375Z,-2.4
2018-03-17T07:04:29.024Z,-2.4
2018-03-17T07:05:29.673Z,-2.6
2018-03-17T07:06:30.324Z,-2.6
2018-03-17T07:07:30.975Z,-2.5
2018-03-17T07:08:31.628Z,-2.6
2018-03-17T07:09:32.273Z,-2.8
2018-03-17T07:10:32.923Z,-2.8
2018-03-17T07:11:33.612Z,-2.8
2018-03-17T07:12:34.265Z,-2.9
2018-03-17T07:13:34.918Z,-2.9
2018-03-17T07:14:35.572Z,-2.9
2018-03-17T07:15:36.223Z,-2.9
2018-03-17T07:16:36.875Z,-2.9
2018-03-17T07:17:37.527Z,-2.9
2018-03-17T07:18:38.183Z,-2.9
2018-03-17T07:19:38.832Z,-3.0
2018-03-17T07:20:39.483Z,-2.9
2018-03-17T07:21:40.136Z,-3.0
2018-03-17T07:22:40.796Z,-3.0
2018-03-17T07:23:41.477Z,-3.0
2018-03-17T07:24:42.166Z,-2.9
2018-03-17T07:25:42.820Z,-3.0
2018-03-17T07:26:43.508Z,-3.0
2018-03-17T07:27:44.158Z,-3.0
2018-03-17T07:28:44.811Z,-3.0
2018-03-17T07:29:45.464Z,-2.9
2018-03-17T07:30:46.116Z,-2.9
2018-03-17T07:31:46.767Z,-2.9
2018-03-17T07:32:47.421Z,-2.9
2018-03-17T07:33:48.071Z,-2.9
2018-03-17T07:34:48.760Z,-2.9
2018-03-17T07:35:49.412Z,-2.9
2018-03-17T07:36:50.065Z,-2.9
2018-03-17T07:37:50.776Z,-2.9
2018-03-17T07:38:51.371Z,-2.9
2018-03-17T07:39:52.060Z,-2.7
2018-03-17T07:40:52.711Z,-2.7
2018-03-17T07:41:53.365Z,-2.6
2018-03-17T07:42:54.018Z,-2.5
2018-03-17T07:43:54.670Z,-2.5
2018-03-17T07:44:55.360Z,-2.5
2018-03-17T07:45:56.014Z,-2.5
2018-03-17T07:46:56.668Z,-2.6
2018-03-17T07:47:57.320Z,-2.4
2018-03-17T07:48:58.009Z,-2.4
2018-03-17T07:49:58.663Z,-2.5
2018-03-17T07:50:59.315Z,-2.4
2018-03-17T07:51:59.969Z,-2.5
2018-03-17T07:53:00.620Z,-2.6
2018-03-17T07:54:01.271Z,-2.6
2018-03-17T07:55:01.926Z,-2.6
2018-03-17T07:56:02.579Z,-2.7
2018-03-17T07:57:03.232Z,-2.7
2018-03-17T07:58:03.885Z,-2.6
2018-03-17T07:59:04.536Z,-2.7
2018-03-17T08:00:05.188Z,-2.6
2018-03-17T08:01:05.840Z,-2.5
2018-03-17T08:02:06.493Z,-2.6
2018-03-17T08:03:07.144Z,-2.5
2018-03-17T08:04:07.797Z,-2.7
2018-03-17T08:05:08.487Z,-2.7
2018-03-17T08:06:09.138Z,-2.7
2018-03-17T08:07:09.788Z,-2.7
2018-03-17T08:08:10.440Z,-2.7
2018-03-17T08:09:11.092Z,-2.6
2018-03-17T08:10:11.745Z,-2.6
2018-03-17T08:11:12.396Z,-2.6
2018-03-17T08:12:13.047Z,-2.7
2018-03-17T08:13:13.701Z,-2.6
2018-03-17T08:14:14.388Z,-2.7
2018-03-17T08:15:15.043Z,-2.6
2018-03-17T08:16:15.695Z,-2.6
2018-03-17T08:17:16.349Z,-2.6
2018-03-17T08:18:17.001Z,-2.6
2018-03-17T08:19:17.654Z,-2.5
2018-03-17T08:20:18.305Z,-2.4
2018-03-17T08:21:18.958Z,-2.5
2018-03-17T08:22:19.613Z,-2.5
2018-03-17T08:23:20.265Z,-2.5
2018-03-17T08:24:20.918Z,-2.5
2018-03-17T08:25:21.568Z,-2.5
2018-03-17T08:26:22.219Z,-2.6
2018-03-17T08:27:22.872Z,-2.4
2018-03-17T08:28:23.524Z,-2.4
2018-03-17T08:29:24.177Z,-2.4
2018-03-17T08:30:24.828Z,-2.4
2018-03-17T08:31:25.483Z,-2.4
2018-03-17T08:32:26.136Z,-2.4
2018-03-17T08:33:26.790Z,-2.4
2018-03-17T08:34:27.442Z,-2.5
2018-03-17T08:35:28.130Z,-2.4
2018-03-17T08:36:28.781Z,-2.5
2018-03-17T08:37:29.431Z,-2.5
2018-03-17T08:38:30.082Z,-2.5
2018-03-17T08:39:30.735Z,-2.5
2018-03-17T08:40:31.389Z,-2.5
2018-03-17T08:41:32.041Z,-2.6
2018-03-17T08:42:32.694Z,-2.5
2018-03-17T08:43:33.396Z,-2.5
2018-03-17T08:44:34.046Z,-2.5
2018-03-17T08:45:34.699Z,-2.4
2018-03-17T08:46:35.388Z,-2.5
2018-03-17T08:47:36.038Z,-2.5
2018-03-17T08:48:36.693Z,-2.5
2018-03-17T08:49:37.345Z,-2.5
2018-03-17T08:50:37.998Z,-2.5
2018-03-17T08:51:38.649Z,-2.5
2018-03-17T08:52:39.300Z,-2.4
2018-03-17T08:53:39.954Z,-2.6
2018-03-17T08:54:40.605Z,-2.4
2018-03-17T08:55:41.257Z,-2.4
2018-03-17T08:56:41.907Z,-2.4
2018-03-17T08:57:42.560Z,-2.4
2018-03-17T08:58:43.244Z,-2.3
2018-03-17T08:59:43.865Z,-2.3
2018-03-17T09:00:44.516Z,-2.2
2018-03-17T09:01:45.167Z,-2.3
2018-03-17T09:02:45.820Z,-2.3
2018-03-17T09:03:46.474Z,-2.3
2018-03-17T09:04:47.125Z,-2.4
2018-03-17T09:05:47.776Z,-2.4
2018-03-17T09:06:48.429Z,-2.6
2018-03-17T09:07:49.082Z,-2.4
2018-03-17T09:08:49.732Z,-2.4
2018-03-17T09:09:50.384Z,-2.4
2018-03-17T09:10:51.074Z,-2.4
2018-03-17T09:11:51.726Z,-2.4
2018-03-17T09:12:52.376Z,-2.4
2018-03-17T09:13:53.029Z,-2.5
2018-03-17T09:14:53.684Z,-2.4
2018-03-17T09:15:54.371Z,-2.6
2018-03-17T09:16:55.020Z,-2.4
2018-03-17T09:17:55.673Z,-2.5
2018-03-17T09:18:56.324Z,-2.5
2018-03-17T09:19:56.976Z,-2.5
2018-03-17T09:20:57.629Z,-2.4
2018-03-17T09:21:58.287Z,-2.5
2018-03-17T09:22:58.934Z,-2.4
2018-03-17T09:23:59.584Z,-2.5
2018-03-17T09:25:00.236Z,-2.4
2018-03-17T09:26:00.895Z,-2.4
2018-03-17T09:27:01.542Z,-2.4
2018-03-17T09:28:02.193Z,-2.4
2018-03-17T09:29:02.845Z,-2.4
2018-03-17T09:30:03.537Z,-2.4
2018-03-17T09:31:04.226Z,-2.3
2018-03-17T09:32:04.877Z,-2.3
2018-03-17T09:33:05.532Z,-2.2
2018-03-17T09:34:06.180Z,-2.2
2018-03-17T09:35:06.834Z,-2.3
2018-03-17T09:36:07.485Z,-2.3
2018-03-17T09:37:08.152Z,-2.1
2018-03-17T09:38:08.835Z,-2.1
2018-03-17T09:39:09.488Z,-2.0
2018-03-17T09:40:10.140Z,-2.2
2018-03-17T09:41:10.796Z,-2.2
2018-03-17T09:42:11.497Z,-2.2
2018-03-17T09:43:12.097Z,-2.2
2018-03-17T09:44:12.751Z,-2.1
2018-03-17T09:45:13.404Z,-2.2
2018-03-17T09:46:14.058Z,-2.2
2018-03-17T09:47:14.748Z,-2.2
2018-03-17T09:48:15.400Z,-2.3
2018-03-17T09:49:16.052Z,-2.3
2018-03-17T09:50:16.702Z,-2.3
2018-03-17T09:51:17.354Z,-2.2
2018-03-17T09:52:18.018Z,-2.2
2018-03-17T09:53:18.694Z,-2.2
2018-03-17T09:54:19.343Z,-2.4
2018-03-17T09:55:19.993Z,-2.3
2018-03-17T09:56:20.682Z,-2.4
2018-03-17T09:57:21.332Z,-2.3
2018-03-17T09:58:22.019Z,-2.4
2018-03-17T09:59:22.638Z,-2.2
2018-03-17T10:00:23.290Z,-2.2
2018-03-17T10:01:23.940Z,-2.2
2018-03-17T10:02:24.590Z,-2.2
2018-03-17T10:03:25.242Z,-2.2
2018-03-17T10:04:25.893Z,-2.3
2018-03-17T10:05:26.545Z,-2.3
2018-03-17T10:06:27.200Z,-2.4
2018-03-17T10:07:27.853Z,-2.3
2018-03-17T10:08:28.507Z,-2.2
2018-03-17T10:09:29.161Z,-2.3
2018-03-17T10:10:29.810Z,-2.2
2018-03-17T10:11:30.460Z,-2.2
2018-03-17T10:12:31.111Z,-2.3
2018-03-17T10:13:31.768Z,-2.3
2018-03-17T10:14:32.417Z,-2.2
2018-03-17T10:15:33.070Z,-2.3
2018-03-17T10:16:33.724Z,-2.3
2018-03-17T10:17:34.382Z,-2.2
2018-03-17T10:18:35.029Z,-2.2
2018-03-17T10:19:35.680Z,-2.0
2018-03-17T10:20:36.333Z,-2.1
2018-03-17T10:21:36.986Z,-2.2
2018-03-17T10:22:37.638Z,-2.2
2018-03-17T10:23:38.302Z,-2.1
2018-03-17T10:24:38.975Z,-2.1
2018-03-17T10:25:39.629Z,-2.1
2018-03-17T10:26:40.318Z,-2.1
2018-03-17T10:27:40.970Z,-2.0
2018-03-17T10:28:41.621Z,-2.1
2018-03-17T10:29:42.273Z,-2.0
2018-03-17T10:30:42.928Z,-2.0
2018-03-17T10:31:43.579Z,-2.0
2018-03-17T10:32:44.232Z,-1.9
2018-03-17T10:33:44.950Z,-1.8
2018-03-17T10:34:45.562Z,-1.8
2018-03-17T10:35:46.218Z,-1.7
2018-03-17T10:36:46.872Z,-1.7
2018-03-17T10:37:47.527Z,-1.7
2018-03-17T10:38:48.181Z,-1.7
2018-03-17T10:39:48.894Z,-1.7
2018-03-17T10:40:49.484Z,-1.8
2018-03-17T10:41:50.139Z,-1.9
2018-03-17T10:42:50.827Z,-1.9
2018-03-17T10:43:51.479Z,-1.9
2018-03-17T10:44:52.133Z,-1.9
2018-03-17T10:45:52.787Z,-1.9
2018-03-17T10:46:53.440Z,-1.9
2018-03-17T10:47:54.110Z,-1.8
2018-03-17T10:48:54.745Z,-1.8
2018-03-17T10:49:55.447Z,-1.7
2018-03-17T10:50:56.100Z,-1.8
2018-03-17T10:51:56.752Z,-1.8
2018-03-17T10:52:57.405Z,-1.8
2018-03-17T10:53:58.060Z,-1.8
2018-03-17T10:54:58.712Z,-1.8
2018-03-17T10:55:59.365Z,-1.9
2018-03-17T10:57:00.020Z,-1.9
2018-03-17T10:58:00.675Z,-1.9
2018-03-17T10:59:01.341Z,-1.9
2018-03-17T11:00:02.025Z,-1.9
2018-03-17T11:01:02.671Z,-1.8
2018-03-17T11:02:03.327Z,-1.8
2018-03-17T11:03:03.983Z,-1.8
2018-03-17T11:04:04.637Z,-1.8
2018-03-17T11:05:05.288Z,-1.8
2018-03-17T11:06:06.035Z,-1.8
2018-03-17T11:07:06.597Z,-1.8
2018-03-17T11:08:07.288Z,-1.9
2018-03-17T11:09:07.940Z,-1.8
2018-03-17T11:10:08.592Z,-1.9
2018-03-17T11:11:09.446Z,-1.8
2018-03-17T11:12:10.100Z,-1.8
2018-03-17T11:13:10.761Z,-1.8
2018-03-17T11:14:11.419Z,-1.8
2018-03-17T11:15:12.064Z,-1.7
2018-03-17T11:16:12.718Z,-1.7
2018-03-17T11:17:13.371Z,-1.7
2018-03-17T11:18:14.023Z,-1.7
2018-03-17T11:19:14.674Z,-1.7
2018-03-17T11:20:15.329Z,-1.8
2018-03-17T11:21:15.983Z,-1.8
2018-03-17T11:22:16.638Z,-1.8
2018-03-17T11:23:17.286Z,-1.8
2018-03-17T11:24:17.939Z,-1.8
2018-03-17T11:25:18.597Z,-1.9
2018-03-17T11:26:19.244Z,-2.0
2018-03-17T11:27:19.896Z,-1.8
2018-03-17T11:28:20.549Z,-1.9
2018-03-17T11:29:21.202Z,-2.0
2018-03-17T11:30:21.856Z,-1.9
2018-03-17T11:31:22.509Z,-2.0
2018-03-17T11:32:23.162Z,-1.9
2018-03-17T11:33:23.816Z,-2.0
2018-03-17T11:34:24.472Z,-2.0
2018-03-17T11:35:25.126Z,-2.0
2018-03-17T11:36:25.777Z,-2.0
2018-03-17T11:37:26.429Z,-2.0
2018-03-17T11:38:27.081Z,-1.9
2018-03-17T11:39:27.734Z,-1.9
2018-03-17T11:40:28.389Z,-1.9
2018-03-17T11:41:29.039Z,-1.8
2018-03-17T11:42:29.693Z,-1.8
2018-03-17T11:43:30.349Z,-1.8
2018-03-17T11:44:31.003Z,-1.8
2018-03-17T11:45:31.658Z,-1.8
2018-03-17T11:46:32.314Z,-1.9
2018-03-17T11:47:33.002Z,-1.8
2018-03-17T11:48:33.656Z,-1.8
2018-03-17T11:49:34.344Z,-1.8
2018-03-17T11:50:34.997Z,-1.6
2018-03-17T11:51:35.649Z,-1.7
2018-03-17T11:52:36.303Z,-1.7
2018-03-17T11:53:36.956Z,-1.8
2018-03-17T11:54:37.613Z,-1.8
2018-03-17T11:55:38.262Z,-1.7
2018-03-17T11:56:38.950Z,-1.7
2018-03-17T11:57:39.603Z,-1.7
2018-03-17T11:58:40.257Z,-1.7
2018-03-17T11:59:40.912Z,-1.5
2018-03-17T12:00:41.567Z,-1.6
2018-03-17T12:01:42.225Z,-1.5
2018-03-17T12:02:42.879Z,-1.5
2018-03-17T12:03:43.530Z,-1.5
2018-03-17T12:04:44.182Z,-1.4
2018-03-17T12:05:44.837Z,-1.5
2018-03-17T12:06:45.490Z,-1.5
2018-03-17T12:07:46.148Z,-1.6
2018-03-17T12:08:46.838Z,-1.6
2018-03-17T12:09:47.490Z,-1.6
2018-03-17T12:10:48.145Z,-1.5
2018-03-17T12:11:48.804Z,-1.6
2018-03-17T12:12:49.455Z,-1.7
2018-03-17T12:13:50.109Z,-1.6
2018-03-17T12:14:50.760Z,-1.6
2018-03-17T12:15:51.444Z,-1.7
2018-03-17T12:16:52.106Z,-1.6
2018-03-17T12:17:52.758Z,-1.7
2018-03-17T12:18:53.415Z,-1.7
2018-03-17T12:19:54.064Z,-1.7
2018-03-17T12:20:54.721Z,-1.7
2018-03-17T12:21:55.373Z,-1.7
2018-03-17T12:22:56.024Z,-1.7
2018-03-17T12:23:56.677Z,-1.6
2018-03-17T12:24:57.330Z,-1.7
2018-03-17T12:25:57.984Z,-1.7
2018-03-17T12:26:58.637Z,-1.5
2018-03-17T12:27:59.293Z,-1.5
2018-03-17T12:28:59.942Z,-1.5
2018-03-17T12:30:00.597Z,-1.5
2018-03-17T12:31:01.252Z,-1.5
2018-03-17T12:32:01.945Z,-1.4
2018-03-17T12:33:02.629Z,-1.4
2018-03-17T12:34:03.283Z,-1.4
2018-03-17T12:35:03.937Z,-1.5
2018-03-17T12:36:04.590Z,-1.4
2018-03-17T12:37:05.244Z,-1.5
2018-03-17T12:38:05.903Z,-1.4
2018-03-17T12:39:06.556Z,-1.4
2018-03-17T12:40:07.209Z,-1.4
2018-03-17T12:41:07.863Z,-1.4
2018-03-17T12:42:08.516Z,-1.4
2018-03-17T12:43:09.168Z,-1.5
2018-03-17T12:44:09.823Z,-1.5
2018-03-17T12:45:10.477Z,-1.4
2018-03-17T12:46:11.132Z,-1.3
2018-03-17T12:47:11.783Z,-1.3
2018-03-17T12:48:12.437Z,-1.3
2018-03-17T12:49:13.093Z,-1.4
2018-03-17T12:50:13.748Z,-1.5
2018-03-17T12:51:14.405Z,-1.5
2018-03-17T12:52:15.054Z,-1.5
2018-03-17T12:53:15.707Z,-1.5
2018-03-17T12:54:16.358Z,-1.5
2018-03-17T12:55:17.011Z,-1.6
2018-03-17T12:56:17.664Z,-1.7
2018-03-17T12:57:18.317Z,-1.6
2018-03-17T12:58:19.010Z,-1.6
2018-03-17T12:59:19.663Z,-1.6
2018-03-17T13:00:20.315Z,-1.7
2018-03-17T13:01:20.968Z,-1.6
2018-03-17T13:02:21.621Z,-1.6
2018-03-17T13:03:22.310Z,-1.6
2018-03-17T13:04:22.964Z,-1.5
2018-03-17T13:05:23.619Z,-1.5
2018-03-17T13:06:24.274Z,-1.6
2018-03-17T13:07:24.931Z,-1.7
2018-03-17T13:08:25.630Z,-1.7
2018-03-17T13:09:26.234Z,-1.7
2018-03-17T13:10:26.886Z,-1.7
2018-03-17T13:11:27.539Z,-1.6
2018-03-17T13:12:28.194Z,-1.7
2018-03-17T13:13:28.883Z,-1.6
2018-03-17T13:14:29.537Z,-1.5
2018-03-17T13:15:30.224Z,-1.5
2018-03-17T13:16:30.880Z,-1.5
2018-03-17T13:17:31.532Z,-1.5
2018-03-17T13:18:32.185Z,-1.5
2018-03-17T13:19:32.838Z,-1.5
2018-03-17T13:20:33.491Z,-1.5
2018-03-17T13:21:34.143Z,-1.6
2018-03-17T13:22:34.799Z,-1.6
2018-03-17T13:23:35.452Z,-1.5
2018-03-17T13:24:36.109Z,-1.6
2018-03-17T13:25:36.763Z,-1.5
2018-03-17T13:26:37.415Z,-1.6
2018-03-17T13:27:38.068Z,-1.6
2018-03-17T13:28:38.720Z,-1.6
2018-03-17T13:29:39.374Z,-1.6